EDT,Max TemperatureF,Mean TemperatureF,Min TemperatureF,Max Dew PointF,MeanDew PointF,Min DewpointF,Max Humidity, Mean Humidity, Min Humidity, Max Sea Level PressureIn, Mean Sea Level PressureIn, Min Sea Level PressureIn, Max VisibilityMiles, Mean VisibilityMiles, Min VisibilityMiles, Max Wind SpeedMPH, Mean Wind SpeedMPH, Max Gust SpeedMPH,PrecipitationIn, CloudCover, Events, WindDirDegrees
2013-10-1,78,68,59,61,57,54,88,70,47,30.15,30.09,30.05,10,10,10,10,5,,0.00,4,,201
2013-10-2,82,70,59,66,63,57,94,78,54,30.16,30.11,30.08,10,10,7,9,3,,0.00,4,,205
2013-10-3,77,70,64,68,65,63,94,85,61,30.14,30.10,30.07,10,8,1,9,2,,0.00,3,,175
2013-10-4,82,72,62,64,62,61,94,73,48,30.16,30.11,30.08,10,10,2,10,4,,0.00,1,,199
2013-10-5,86,76,66,66,63,61,94,72,45,30.12,30.07,29.98,10,10,7,13,6,18,0.00,4,,177
2013-10-6,82,68,53,66,60,52,94,75,51,29.97,29.89,29.78,10,9,2,18,9,29,0.00,5,,203
2013-10-7,62,54,46,52,45,39,94,73,42,30.15,30.01,29.90,10,10,5,14,5,20,0.00,2,,271
2013-10-8,68,54,41,46,44,41,100,70,40,30.25,30.19,30.15,10,10,7,16,4,21,0.00,0,,67
2013-10-9,73,60,46,52,48,43,88,69,43,30.23,30.18,30.15,10,10,1,5,2,,0.00,0,,69
2013-10-10,71,56,42,52,46,41,100,71,35,30.20,30.14,30.08,10,8,0,5,0,,0.00,1,,306
2013-10-11,75,60,46,52,49,45,94,70,41,30.12,30.07,30.04,10,10,7,6,1,,0.00,0,,327
2013-10-12,77,62,48,55,52,46,100,72,41,30.14,30.08,30.04,10,9,4,6,1,,0.00,0,,304
2013-10-13,77,64,50,61,55,48,100,78,47,30.27,30.22,30.14,10,8,2,8,1,,0.00,1,,4
2013-10-14,75,66,57,59,56,55,94,80,50,30.30,30.23,30.16,10,7,2,7,1,,0.00,4,,62
2013-10-15,73,65,57,61,58,55,94,79,61,30.17,30.08,30.00,10,9,3,10,3,,0.00,4,,184
2013-10-16,64,62,59,61,59,57,100,89,77,30.02,29.98,29.95,10,8,2,10,5,,0.00,7,,211
2013-10-17,59,54,46,57,50,45,100,89,72,30.02,29.94,29.89,10,6,2,13,4,18,0.00,7,,298
2013-10-18,62,50,39,48,43,39,100,76,45,30.09,30.03,29.98,10,8,0,5,1,,0.00,1,,198
2013-10-19,55,48,41,48,43,39,93,84,72,30.05,29.95,29.88,10,10,3,16,5,23,0.00,4,,218
2013-10-20,60,48,35,41,37,34,100,72,39,30.12,30.07,30.04,10,10,7,8,5,,0.00,0,,198
2013-10-21,66,52,39,41,38,34,93,61,30,30.08,30.02,29.95,10,10,10,15,4,20,0.00,1,,209
2013-10-22,53,47,41,46,37,30,93,68,41,30.07,29.97,29.86,10,10,7,15,5,22,0.00,4,,284
2013-10-23,46,40,35,45,36,30,93,79,61,30.08,29.93,29.76,10,10,10,18,8,30,0.00,7,,256
2013-10-24,46,40,35,36,32,28,87,74,57,30.29,30.16,30.07,10,10,10,16,6,23,0.00,8,,261
2013-10-25,46,37,28,30,26,23,93,69,40,30.47,30.38,30.29,10,10,10,7,4,,0.00,2,,264
2013-10-26,53,40,28,32,27,23,93,61,33,30.33,30.17,30.01,10,10,10,18,6,25,0.00,3,,214
2013-10-27,62,48,35,45,39,32,93,69,48,30.11,30.08,30.05,10,10,10,12,5,,0.00,3,,230
2013-10-28,57,52,48,54,51,45,100,91,76,30.27,30.19,30.10,10,7,1,6,1,,0.00,8,,206
2013-10-29,62,55,48,57,52,48,100,88,68,30.34,30.27,30.20,10,6,0,6,1,,0.00,6,,182
2013-10-30,69,62,55,61,58,54,94,86,73,30.22,30.16,30.09,10,8,2,12,4,,0.00,7,,198
2013-10-31,69,66,62,61,56,52,83,71,60,30.09,29.84,29.54,10,10,7,25,12,45,0.00,6,,188